createdAt,value
2018-01-23T00:00:07.045Z,100218.36
2018-01-23T00:02:34.504Z,100215.69
2018-01-23T00:05:02.042Z,100228.21
2018-01-23T00:07:32.508Z,100237.86
2018-01-23T00:10:00.051Z,100234.73
2018-01-23T00:12:27.567Z,100240.55
2018-01-23T00:14:55.107Z,100238.70
2018-01-23T00:17:22.603Z,100241.91
2018-01-23T00:19:50.108Z,100246.34
2018-01-23T00:22:17.574Z,100256.33
2018-01-23T00:24:45.070Z,100267.14
2018-01-23T00:27:12.550Z,100272.78
2018-01-23T00:29:40.046Z,100279.48
2018-01-23T00:32:12.473Z,100282.64
2018-01-23T00:34:40.896Z,100282.43
2018-01-23T00:37:08.343Z,100286.62
2018-01-23T00:39:35.824Z,100282.52
2018-01-23T00:42:03.294Z,100287.48
2018-01-23T00:44:30.781Z,100297.76
2018-01-23T00:46:58.303Z,100296.16
2018-01-23T00:49:25.755Z,100298.66
2018-01-23T00:51:53.239Z,100306.19
2018-01-23T00:54:20.697Z,100308.77
2018-01-23T00:56:48.208Z,100296.57
2018-01-23T00:59:16.060Z,100308.90
2018-01-23T01:01:43.636Z,100311.98
2018-01-23T01:04:11.108Z,100313.17
2018-01-23T01:06:38.551Z,100321.56
2018-01-23T01:09:06.023Z,100329.94
2018-01-23T01:11:33.501Z,100334.54
2018-01-23T01:14:00.962Z,100331.46
2018-01-23T01:16:28.446Z,100342.85
2018-01-23T01:18:56.617Z,100342.14
2018-01-23T01:21:24.094Z,100350.74
2018-01-23T01:23:51.581Z,100354.61
2018-01-23T01:26:19.043Z,100366.69
2018-01-23T01:28:46.524Z,100365.62
2018-01-23T01:31:13.970Z,100368.87
2018-01-23T01:33:41.427Z,100371.41
2018-01-23T01:36:08.907Z,100369.73
2018-01-23T01:38:36.373Z,100381.11
2018-01-23T01:41:03.863Z,100386.45
2018-01-23T01:43:31.388Z,100396.41
2018-01-23T01:45:58.843Z,100401.58
2018-01-23T01:48:26.315Z,100410.45
2018-01-23T01:50:53.786Z,100416.59
2018-01-23T01:53:21.291Z,100427.69
2018-01-23T01:55:48.778Z,100429.47
2018-01-23T01:58:16.338Z,100429.99
2018-01-23T02:00:48.756Z,100428.77
2018-01-23T02:03:17.527Z,100425.02
2018-01-23T02:05:44.973Z,100421.69
2018-01-23T02:08:13.167Z,100431.14
2018-01-23T02:10:40.716Z,100432.87
2018-01-23T02:13:08.463Z,100435.33
2018-01-23T02:15:35.970Z,100440.47
2018-01-23T02:18:03.475Z,100451.45
2018-01-23T02:20:30.957Z,100454.29
2018-01-23T02:22:58.738Z,100455.24
2018-01-23T02:25:27.015Z,100449.94
2018-01-23T02:27:54.595Z,100454.50
2018-01-23T02:30:22.957Z,100458.73
2018-01-23T02:32:50.434Z,100460.34
2018-01-23T02:35:17.929Z,100464.28
2018-01-23T02:37:45.420Z,100454.50
2018-01-23T02:40:12.900Z,100461.32
2018-01-23T02:42:40.404Z,100469.67
2018-01-23T02:45:07.879Z,100467.66
2018-01-23T02:47:35.419Z,100461.61
2018-01-23T02:50:02.950Z,100468.27
2018-01-23T02:52:30.450Z,100465.22
2018-01-23T02:54:57.927Z,100470.20
2018-01-23T02:57:25.467Z,100463.13
2018-01-23T02:59:52.976Z,100465.34
2018-01-23T03:02:20.495Z,100470.77
2018-01-23T03:04:47.977Z,100476.44
2018-01-23T03:07:15.513Z,100479.88
2018-01-23T03:09:42.978Z,100482.05
2018-01-23T03:12:10.470Z,100481.13
2018-01-23T03:14:37.950Z,100486.27
2018-01-23T03:17:05.408Z,100492.64
2018-01-23T03:19:32.863Z,100495.50
2018-01-23T03:22:00.363Z,100496.48
2018-01-23T03:24:27.817Z,100502.38
2018-01-23T03:26:56.229Z,100495.30
2018-01-23T03:29:23.680Z,100502.16
2018-01-23T03:31:51.200Z,100505.30
2018-01-23T03:34:18.658Z,100505.75
2018-01-23T03:36:46.115Z,100511.33
2018-01-23T03:39:13.583Z,100509.89
2018-01-23T03:41:41.074Z,100517.50
2018-01-23T03:44:08.538Z,100524.75
2018-01-23T03:46:36.021Z,100524.59
2018-01-23T03:49:03.578Z,100528.25
2018-01-23T03:51:31.042Z,100530.07
2018-01-23T03:53:58.518Z,100535.17
2018-01-23T03:56:26.022Z,100526.38
2018-01-23T03:58:53.505Z,100537.39
2018-01-23T04:01:21.071Z,100545.13
2018-01-23T04:03:48.560Z,100551.02
2018-01-23T04:06:16.019Z,100557.11
2018-01-23T04:08:44.293Z,100564.36
2018-01-23T04:11:11.851Z,100564.27
2018-01-23T04:13:39.296Z,100566.25
2018-01-23T04:16:06.778Z,100569.63
2018-01-23T04:18:34.234Z,100570.90
2018-01-23T04:21:01.709Z,100580.16
2018-01-23T04:23:29.206Z,100579.95
2018-01-23T04:25:56.672Z,100582.70
2018-01-23T04:28:24.127Z,100585.52
2018-01-23T04:30:51.573Z,100587.48
2018-01-23T04:33:19.035Z,100590.74
2018-01-23T04:35:46.551Z,100588.06
2018-01-23T04:38:14.009Z,100601.24
2018-01-23T04:40:41.538Z,100598.23
2018-01-23T04:43:09.003Z,100600.86
2018-01-23T04:45:36.481Z,100617.86
2018-01-23T04:48:03.975Z,100615.69
2018-01-23T04:50:31.437Z,100624.62
2018-01-23T04:52:58.915Z,100626.80
2018-01-23T04:55:26.409Z,100621.60
2018-01-23T04:57:53.870Z,100627.78
2018-01-23T05:00:21.350Z,100625.09
2018-01-23T05:02:48.828Z,100641.14
2018-01-23T05:05:16.266Z,100642.27
2018-01-23T05:07:43.717Z,100640.57
2018-01-23T05:10:11.203Z,100636.95
2018-01-23T05:12:38.669Z,100645.95
2018-01-23T05:15:06.197Z,100640.64
2018-01-23T05:17:33.712Z,100645.62
2018-01-23T05:20:01.803Z,100651.84
2018-01-23T05:22:29.315Z,100665.18
2018-01-23T05:24:56.811Z,100669.42
2018-01-23T05:27:24.340Z,100671.33
2018-01-23T05:29:51.859Z,100677.01
2018-01-23T05:32:19.473Z,100679.55
2018-01-23T05:34:47.032Z,100684.45
2018-01-23T05:37:14.557Z,100683.50
2018-01-23T05:39:42.080Z,100694.82
2018-01-23T05:42:09.585Z,100694.89
2018-01-23T05:44:37.078Z,100695.06
2018-01-23T05:47:04.585Z,100707.73
2018-01-23T05:49:32.070Z,100698.72
2018-01-23T05:51:59.589Z,100707.68
2018-01-23T05:54:27.049Z,100722.16
2018-01-23T05:56:54.495Z,100719.41
2018-01-23T05:59:22.043Z,100728.09
2018-01-23T06:01:49.517Z,100730.66
2018-01-23T06:04:17.028Z,100738.37
2018-01-23T06:06:44.506Z,100735.36
2018-01-23T06:09:11.979Z,100746.34
2018-01-23T06:11:39.455Z,100745.03
2018-01-23T06:14:07.089Z,100748.14
2018-01-23T06:16:34.547Z,100748.08
2018-01-23T06:19:02.041Z,100755.26
2018-01-23T06:21:29.553Z,100760.12
2018-01-23T06:23:57.023Z,100767.84
2018-01-23T06:26:24.500Z,100768.75
2018-01-23T06:28:51.949Z,100770.36
2018-01-23T06:31:19.410Z,100769.63
2018-01-23T06:33:47.385Z,100771.02
2018-01-23T06:36:14.885Z,100777.54
2018-01-23T06:38:42.495Z,100786.57
2018-01-23T06:41:10.054Z,100793.16
2018-01-23T06:43:37.510Z,100800.89
2018-01-23T06:46:05.039Z,100799.74
2018-01-23T06:48:32.624Z,100806.50
2018-01-23T06:51:00.489Z,100806.87
2018-01-23T06:53:28.016Z,100810.70
2018-01-23T06:55:55.542Z,100808.95
2018-01-23T06:58:23.120Z,100823.94
2018-01-23T07:03:43.648Z,100832.66
2018-01-23T07:06:11.178Z,100832.89
2018-01-23T07:08:38.716Z,100844.86
2018-01-23T07:11:06.346Z,100844.16
2018-01-23T07:13:34.048Z,100845.55
2018-01-23T07:16:01.621Z,100858.89
2018-01-23T07:18:29.190Z,100860.09
2018-01-23T07:20:56.677Z,100859.50
2018-01-23T07:23:24.307Z,100859.97
2018-01-23T07:25:51.842Z,100865.65
2018-01-23T07:28:19.334Z,100873.02
2018-01-23T07:30:46.888Z,100872.34
2018-01-23T07:33:14.601Z,100870.73
2018-01-23T07:35:42.237Z,100885.22
2018-01-23T07:38:09.824Z,100888.16
2018-01-23T07:40:37.515Z,100896.72
2018-01-23T07:43:05.091Z,100904.45
2018-01-23T07:45:32.674Z,100901.87
2018-01-23T07:48:00.263Z,100903.06
2018-01-23T07:50:27.836Z,100904.06
2018-01-23T07:52:56.536Z,100908.22
2018-01-23T07:55:24.160Z,100910.30
2018-01-23T07:57:51.651Z,100917.55
2018-01-23T08:00:19.173Z,100916.71
2018-01-23T08:02:46.829Z,100922.06
2018-01-23T08:05:14.339Z,100923.17
2018-01-23T08:07:41.842Z,100928.65
2018-01-23T08:10:09.381Z,100929.73
2018-01-23T08:12:36.904Z,100935.29
2018-01-23T08:15:04.560Z,100936.25
2018-01-23T08:17:32.159Z,100939.77
2018-01-23T08:19:59.764Z,100939.41
2018-01-23T08:22:28.245Z,100940.32
2018-01-23T08:24:55.833Z,100945.16
2018-01-23T08:27:23.384Z,100946.84
2018-01-23T08:29:50.943Z,100947.37
2018-01-23T08:32:18.469Z,100947.36
2018-01-23T08:34:45.997Z,100945.31
2018-01-23T08:37:13.500Z,100950.17
2018-01-23T08:39:41.063Z,100953.10
2018-01-23T08:42:08.535Z,100958.13
2018-01-23T08:44:36.043Z,100961.18
2018-01-23T08:47:03.587Z,100964.05
2018-01-23T08:49:32.049Z,100968.97
2018-01-23T08:51:59.595Z,100963.17
2018-01-23T08:54:27.313Z,100963.22
2018-01-23T08:56:54.901Z,100972.01
2018-01-23T08:59:22.423Z,100974.52
2018-01-23T09:01:49.919Z,100968.72
2018-01-23T09:04:17.455Z,100976.19
2018-01-23T09:06:44.921Z,100983.16
2018-01-23T09:09:12.506Z,100987.94
2018-01-23T09:11:40.050Z,100994.00
2018-01-23T09:14:07.653Z,100996.98
2018-01-23T09:16:35.131Z,101006.71
2018-01-23T09:19:02.700Z,101010.52
2018-01-23T09:21:30.228Z,101012.22
2018-01-23T09:23:57.762Z,101020.83
2018-01-23T09:26:25.272Z,101016.40
2018-01-23T09:28:52.773Z,101024.02
2018-01-23T09:31:20.279Z,101018.47
2018-01-23T09:33:50.022Z,101029.19
2018-01-23T09:36:17.624Z,101025.17
2018-01-23T09:38:45.261Z,101039.14
2018-01-23T09:41:13.202Z,101040.05
2018-01-23T09:43:40.712Z,101037.77
2018-01-23T09:46:08.231Z,101048.13
2018-01-23T09:48:35.768Z,101049.75
2018-01-23T09:51:03.227Z,101053.36
2018-01-23T09:53:30.745Z,101064.08
2018-01-23T09:55:58.344Z,101064.42
2018-01-23T09:58:25.882Z,101063.45
2018-01-23T10:00:53.490Z,101063.67
2018-01-23T10:03:21.031Z,101073.87
2018-01-23T10:05:48.513Z,101074.70
2018-01-23T10:08:16.071Z,101078.34
2018-01-23T10:10:43.599Z,101081.66
2018-01-23T10:13:11.114Z,101078.34
2018-01-23T10:15:38.625Z,101079.47
2018-01-23T10:18:06.123Z,101076.72
2018-01-23T10:20:33.645Z,101081.69
2018-01-23T10:23:01.141Z,101085.88
2018-01-23T10:25:28.639Z,101087.18
2018-01-23T10:27:56.142Z,101093.33
2018-01-23T10:30:23.639Z,101083.32
2018-01-23T10:32:51.183Z,101086.11
2018-01-23T10:35:19.758Z,101079.95
2018-01-23T10:37:47.233Z,101081.37
2018-01-23T10:40:15.571Z,101085.62
2018-01-23T10:42:43.103Z,101084.34
2018-01-23T10:45:10.634Z,101079.19
2018-01-23T10:47:38.284Z,101084.73
2018-01-23T10:50:05.781Z,101083.08
2018-01-23T10:52:33.889Z,101083.03
2018-01-23T10:55:01.471Z,101084.80
2018-01-23T10:57:29.066Z,101086.75
2018-01-23T10:59:56.585Z,101082.52
2018-01-23T11:02:24.106Z,101089.39
2018-01-23T11:04:51.629Z,101093.12
2018-01-23T11:07:19.178Z,101101.08
2018-01-23T11:09:46.765Z,101100.44
2018-01-23T11:12:14.394Z,101098.88
2018-01-23T11:14:41.871Z,101097.67
2018-01-23T11:17:09.324Z,101092.64
2018-01-23T11:19:36.832Z,101088.27
2018-01-23T11:22:04.424Z,101098.42
2018-01-23T11:24:32.007Z,101102.42
2018-01-23T11:26:59.560Z,101098.20
2018-01-23T11:29:27.072Z,101099.23
2018-01-23T11:31:54.633Z,101098.44
2018-01-23T11:34:22.196Z,101094.59
2018-01-23T11:36:49.734Z,101092.38
2018-01-23T11:39:17.328Z,101091.48
2018-01-23T11:41:44.882Z,101082.31
2018-01-23T11:44:12.369Z,101084.83
2018-01-23T11:46:39.951Z,101084.79
2018-01-23T11:49:07.442Z,101089.46
2018-01-23T11:51:35.016Z,101094.25
2018-01-23T11:54:02.549Z,101091.85
2018-01-23T11:56:30.196Z,101098.08
2018-01-23T11:58:57.713Z,101096.13
2018-01-23T12:01:25.198Z,101099.22
2018-01-23T12:03:52.735Z,101098.23
2018-01-23T12:06:20.299Z,101094.13
2018-01-23T12:08:47.774Z,101090.78
2018-01-23T12:11:15.566Z,101100.69
2018-01-23T12:13:43.128Z,101094.46
2018-01-23T12:16:10.662Z,101098.30
2018-01-23T12:18:38.196Z,101088.19
2018-01-23T12:21:05.779Z,101090.09
2018-01-23T12:23:33.254Z,101098.93
2018-01-23T12:26:00.705Z,101094.59
2018-01-23T12:28:28.250Z,101090.34
2018-01-23T12:30:56.581Z,101091.95
2018-01-23T12:33:24.127Z,101088.28
2018-01-23T12:35:51.758Z,101077.84
2018-01-23T12:38:19.302Z,101077.09
2018-01-23T12:40:46.885Z,101085.66
2018-01-23T12:43:14.406Z,101079.16
2018-01-23T12:45:42.005Z,101081.32
2018-01-23T12:48:09.538Z,101083.91
2018-01-23T12:50:37.911Z,101076.48
2018-01-23T12:53:05.431Z,101077.80
2018-01-23T12:55:33.034Z,101079.86
2018-01-23T12:58:00.807Z,101071.69
2018-01-23T13:00:28.372Z,101073.47
2018-01-23T13:02:55.864Z,101073.64
2018-01-23T13:05:23.323Z,101075.94
2018-01-23T13:07:50.890Z,101079.95
2018-01-23T13:10:18.440Z,101087.67
2018-01-23T13:12:45.962Z,101082.67
2018-01-23T13:15:13.522Z,101089.07
2018-01-23T13:17:41.043Z,101074.86
2018-01-23T13:20:08.661Z,101074.40
2018-01-23T13:22:36.227Z,101074.40
2018-01-23T13:25:03.855Z,101074.86
2018-01-23T13:27:31.434Z,101075.89
2018-01-23T13:29:58.972Z,101077.13
2018-01-23T13:32:26.522Z,101078.25
2018-01-23T13:34:54.006Z,101075.77
2018-01-23T13:37:21.539Z,101083.98
2018-01-23T13:39:49.809Z,101087.34
2018-01-23T13:42:17.317Z,101075.33
2018-01-23T13:44:44.799Z,101077.09
2018-01-23T13:47:12.308Z,101079.20
2018-01-23T13:49:39.871Z,101078.84
2018-01-23T13:52:07.335Z,101075.00
2018-01-23T13:54:34.977Z,101075.00
2018-01-23T13:57:02.497Z,101074.83
2018-01-23T13:59:29.997Z,101074.20
2018-01-23T14:01:57.484Z,101077.02
2018-01-23T14:04:25.014Z,101076.23
2018-01-23T14:06:52.522Z,101088.67
2018-01-23T14:09:21.064Z,101081.27
2018-01-23T14:11:49.204Z,101081.61
2018-01-23T14:14:16.869Z,101081.39
2018-01-23T14:16:44.588Z,101075.16
2018-01-23T14:19:12.120Z,101075.25
2018-01-23T14:21:39.613Z,101079.21
2018-01-23T14:24:07.153Z,101081.06
2018-01-23T14:26:34.643Z,101080.61
2018-01-23T14:29:02.202Z,101083.26
2018-01-23T14:31:29.731Z,101085.23
2018-01-23T14:33:57.247Z,101080.20
2018-01-23T14:36:24.842Z,101083.50
2018-01-23T14:38:52.338Z,101085.58
2018-01-23T14:41:19.863Z,101087.84
2018-01-23T14:43:47.347Z,101084.66
2018-01-23T14:46:14.957Z,101083.59
2018-01-23T14:48:42.553Z,101088.59
2018-01-23T14:51:10.160Z,101085.66
2018-01-23T14:53:37.757Z,101087.92
2018-01-23T14:56:05.250Z,101090.61
2018-01-23T14:58:32.806Z,101098.63
2018-01-23T15:01:00.307Z,101094.66
2018-01-23T15:03:27.864Z,101098.88
2018-01-23T15:05:55.395Z,101097.27
2018-01-23T15:08:22.983Z,101095.69
2018-01-23T15:10:52.032Z,101100.69
2018-01-23T15:13:19.529Z,101095.81
2018-01-23T15:15:47.146Z,101087.87
2018-01-23T15:18:14.633Z,101092.47
2018-01-23T15:20:42.174Z,101091.48
2018-01-23T15:23:09.673Z,101095.36
2018-01-23T15:25:37.221Z,101103.79
2018-01-23T15:28:04.738Z,101101.23
2018-01-23T15:30:32.348Z,101096.89
2018-01-23T15:32:59.942Z,101093.95
2018-01-23T15:35:27.466Z,101086.02
2018-01-23T15:37:54.924Z,101090.41
2018-01-23T15:40:22.686Z,101086.61
2018-01-23T15:42:50.290Z,101090.15
2018-01-23T15:45:17.861Z,101083.95
2018-01-23T15:47:45.430Z,101085.60
2018-01-23T15:50:12.996Z,101088.16
2018-01-23T15:52:40.494Z,101096.16
2018-01-23T15:55:08.158Z,101099.34
2018-01-23T15:57:35.668Z,101099.84
2018-01-23T16:00:03.498Z,101096.70
2018-01-23T16:02:31.027Z,101088.89
2018-01-23T16:04:58.598Z,101090.05
2018-01-23T16:07:26.962Z,101092.03
2018-01-23T16:09:54.523Z,101087.03
2018-01-23T16:12:22.049Z,101097.31
2018-01-23T16:14:49.528Z,101094.05
2018-01-23T16:17:18.134Z,101099.09
2018-01-23T16:19:45.744Z,101093.63
2018-01-23T16:22:13.258Z,101096.84
2018-01-23T16:24:40.785Z,101097.83
2018-01-23T16:27:08.343Z,101093.53
2018-01-23T16:29:35.805Z,101088.61
2018-01-23T16:32:03.397Z,101086.05
2018-01-23T16:34:30.915Z,101084.68
2018-01-23T16:36:58.420Z,101092.08
2018-01-23T16:39:25.976Z,101083.07
2018-01-23T16:41:53.478Z,101092.90
2018-01-23T16:44:21.023Z,101088.80
2018-01-23T16:46:48.550Z,101094.78
2018-01-23T16:49:16.118Z,101095.98
2018-01-23T16:51:43.583Z,101098.98
2018-01-23T16:54:11.066Z,101104.94
2018-01-23T16:56:38.667Z,101104.39
2018-01-23T16:59:06.273Z,101103.00
2018-01-23T17:01:33.890Z,101100.02
2018-01-23T17:04:01.476Z,101096.97
2018-01-23T17:06:29.016Z,101100.36
2018-01-23T17:08:56.548Z,101095.02
2018-01-23T17:11:24.069Z,101091.30
2018-01-23T17:13:51.563Z,101091.56
2018-01-23T17:16:19.083Z,101090.65
2018-01-23T17:18:46.644Z,101090.41
2018-01-23T17:21:14.177Z,101080.33
2018-01-23T17:23:41.878Z,101082.44
2018-01-23T17:26:09.381Z,101079.30
2018-01-23T17:28:36.954Z,101077.89
2018-01-23T17:31:04.644Z,101077.20
2018-01-23T17:33:32.212Z,101075.08
2018-01-23T17:35:59.797Z,101068.67
2018-01-23T17:38:28.064Z,101071.44
2018-01-23T17:40:56.247Z,101071.70
2018-01-23T17:43:24.009Z,101066.83
2018-01-23T17:45:52.317Z,101063.27
2018-01-23T17:48:19.844Z,101058.84
2018-01-23T17:50:47.584Z,101058.39
2018-01-23T17:53:15.870Z,101051.18
2018-01-23T17:55:44.590Z,101055.39
2018-01-23T17:58:12.706Z,101056.83
2018-01-23T18:00:42.006Z,101059.47
2018-01-23T18:03:09.641Z,101051.72
2018-01-23T18:05:37.879Z,101040.28
2018-01-23T18:08:05.635Z,101050.84
2018-01-23T18:10:33.728Z,101058.84
2018-01-23T18:13:01.308Z,101062.94
2018-01-23T18:15:28.845Z,101056.74
2018-01-23T18:17:56.457Z,101051.05
2018-01-23T18:20:23.983Z,101042.50
2018-01-23T18:22:51.536Z,101037.71
2018-01-23T18:25:19.068Z,101043.70
2018-01-23T18:27:46.619Z,101035.98
2018-01-23T18:30:14.223Z,101035.68
2018-01-23T18:32:41.890Z,101028.47
2018-01-23T18:35:09.357Z,101028.75
2018-01-23T18:37:36.907Z,101025.03
2018-01-23T18:40:04.446Z,101026.02
2018-01-23T18:42:32.099Z,101015.87
2018-01-23T18:44:59.734Z,101011.61
2018-01-23T18:47:27.436Z,101006.62
2018-01-23T18:49:54.998Z,101008.69
2018-01-23T18:52:22.623Z,100999.19
2018-01-23T18:54:50.163Z,101000.77
2018-01-23T18:57:17.690Z,101001.75
2018-01-23T18:59:45.300Z,100997.95
2018-01-23T19:02:12.870Z,100994.11
2018-01-23T19:04:40.524Z,100988.30
2018-01-23T19:07:08.061Z,100989.86
2018-01-23T19:09:35.649Z,100983.38
2018-01-23T19:12:03.207Z,100983.42
2018-01-23T19:14:30.824Z,100981.59
2018-01-23T19:16:58.304Z,100972.48
2018-01-23T19:19:25.934Z,100966.41
2018-01-23T19:21:53.455Z,100961.83
2018-01-23T19:24:21.003Z,100968.69
2018-01-23T19:26:48.502Z,100960.59
2018-01-23T19:29:16.015Z,100953.78
2018-01-23T19:31:43.550Z,100958.24
2018-01-23T19:34:11.177Z,100951.18
2018-01-23T19:36:38.706Z,100950.20
2018-01-23T19:39:06.361Z,100951.56
2018-01-23T19:41:34.037Z,100946.02
2018-01-23T19:44:01.801Z,100955.93
2018-01-23T19:46:29.370Z,100960.05
2018-01-23T19:48:57.787Z,100948.33
2018-01-23T19:51:25.385Z,100950.02
2018-01-23T19:53:52.927Z,100945.56
2018-01-23T19:56:20.484Z,100949.12
2018-01-23T19:58:51.056Z,100940.12
2018-01-23T20:01:18.824Z,100947.75
2018-01-23T20:03:46.328Z,100935.87
2018-01-23T20:06:14.057Z,100935.13
2018-01-23T20:08:41.611Z,100942.23
2018-01-23T20:11:09.240Z,100944.48
2018-01-23T20:13:36.769Z,100938.67
2018-01-23T20:16:04.301Z,100946.31
2018-01-23T20:18:33.021Z,100946.44
2018-01-23T20:21:00.647Z,100938.76
2018-01-23T20:23:28.223Z,100946.80
2018-01-23T20:25:55.767Z,100942.14
2018-01-23T20:28:23.351Z,100942.27
2018-01-23T20:30:50.896Z,100942.92
2018-01-23T20:33:18.400Z,100938.96
2018-01-23T20:35:46.726Z,100937.27
2018-01-23T20:38:14.391Z,100926.87
2018-01-23T20:40:42.028Z,100933.14
2018-01-23T20:43:09.615Z,100935.00
2018-01-23T20:45:37.269Z,100928.03
2018-01-23T20:48:04.752Z,100924.22
2018-01-23T20:50:32.304Z,100930.20
2018-01-23T20:52:59.784Z,100915.27
2018-01-23T20:55:27.680Z,100909.86
2018-01-23T20:57:55.187Z,100911.42
2018-01-23T21:00:22.934Z,100916.38
2018-01-23T21:02:50.694Z,100911.27
2018-01-23T21:05:18.210Z,100908.05
2018-01-23T21:07:45.805Z,100905.41
2018-01-23T21:10:13.286Z,100903.92
2018-01-23T21:12:40.822Z,100903.34
2018-01-23T21:15:08.419Z,100895.95
2018-01-23T21:17:35.952Z,100900.81
2018-01-23T21:20:03.512Z,100892.61
2018-01-23T21:22:31.229Z,100884.27
2018-01-23T21:24:58.934Z,100890.45
2018-01-23T21:27:26.477Z,100888.44
2018-01-23T21:29:53.962Z,100889.22
2018-01-23T21:32:21.515Z,100882.62
2018-01-23T21:34:49.083Z,100875.89
2018-01-23T21:37:16.772Z,100882.70
2018-01-23T21:39:44.327Z,100876.88
2018-01-23T21:42:12.953Z,100885.64
2018-01-23T21:44:40.582Z,100882.80
2018-01-23T21:47:08.278Z,100883.57
2018-01-23T21:49:35.834Z,100893.48
2018-01-23T21:52:03.330Z,100879.45
2018-01-23T21:54:30.856Z,100890.64
2018-01-23T21:56:58.442Z,100888.28
2018-01-23T21:59:25.948Z,100893.69
2018-01-23T22:01:53.760Z,100886.05
2018-01-23T22:04:21.247Z,100887.09
2018-01-23T22:06:48.785Z,100887.95
2018-01-23T22:09:16.323Z,100887.75
2018-01-23T22:11:43.898Z,100892.78
2018-01-23T22:14:12.359Z,100893.64
2018-01-23T22:16:39.968Z,100891.58
2018-01-23T22:19:07.773Z,100879.83
2018-01-23T22:21:35.276Z,100881.77
2018-01-23T22:24:02.885Z,100873.59
2018-01-23T22:26:30.403Z,100884.16
2018-01-23T22:28:57.880Z,100883.62
2018-01-23T22:31:25.425Z,100879.87
2018-01-23T22:33:52.890Z,100876.32
2018-01-23T22:36:20.420Z,100874.29
2018-01-23T22:38:48.037Z,100870.33
2018-01-23T22:41:15.567Z,100877.02
2018-01-23T22:43:43.112Z,100885.84
2018-01-23T22:46:10.977Z,100875.24
2018-01-23T22:48:38.703Z,100876.23
2018-01-23T22:51:06.375Z,100875.94
2018-01-23T22:53:33.905Z,100866.56
2018-01-23T22:56:01.667Z,100855.86
2018-01-23T22:58:29.202Z,100851.88
2018-01-23T23:00:56.740Z,100847.78
2018-01-23T23:03:24.268Z,100851.88
2018-01-23T23:05:51.933Z,100855.43
2018-01-23T23:08:19.481Z,100855.43
2018-01-23T23:10:47.006Z,100855.18
2018-01-23T23:13:14.585Z,100853.52
2018-01-23T23:15:42.417Z,100855.02
2018-01-23T23:18:09.897Z,100858.14
2018-01-23T23:20:37.410Z,100861.75
2018-01-23T23:23:04.911Z,100858.28
2018-01-23T23:25:32.715Z,100858.70
2018-01-23T23:28:00.202Z,100852.47
2018-01-23T23:30:27.704Z,100854.08
2018-01-23T23:32:55.222Z,100837.78
2018-01-23T23:35:22.746Z,100841.50
2018-01-23T23:37:50.496Z,100851.52
2018-01-23T23:40:17.968Z,100845.05
2018-01-23T23:42:45.440Z,100824.26
2018-01-23T23:45:12.933Z,100814.64
2018-01-23T23:47:40.402Z,100812.75
2018-01-23T23:50:07.910Z,100809.95
2018-01-23T23:52:35.403Z,100811.67
2018-01-23T23:55:02.975Z,100822.11
2018-01-23T23:57:30.424Z,100814.48
2018-01-23T23:59:57.876Z,100802.23
